createdAt,value
2019-02-04T00:00:30.265Z,33.33
2019-02-04T00:03:03.816Z,35.20
2019-02-04T00:05:36.911Z,41.67
2019-02-04T00:08:08.619Z,44.60
2019-02-04T00:10:40.119Z,38.07
2019-02-04T00:13:17.399Z,40.77
2019-02-04T00:15:49.048Z,37.80
2019-02-04T00:18:21.859Z,35.23
2019-02-04T00:20:53.310Z,36.67
2019-02-04T00:23:25.021Z,49.93
2019-02-04T00:26:04.167Z,37.83
2019-02-04T00:28:35.604Z,34.10
2019-02-04T00:31:07.289Z,39.97
2019-02-04T00:33:39.101Z,41.37
2019-02-04T00:36:10.546Z,41.67
2019-02-04T00:38:41.995Z,39.70
2019-02-04T00:41:13.459Z,43.40
2019-02-04T00:43:44.918Z,51.13
2019-02-04T00:46:16.675Z,41.40
2019-02-04T00:48:48.093Z,34.07
2019-02-04T00:51:21.603Z,38.90
2019-02-04T00:53:52.703Z,41.00
2019-02-04T00:56:24.160Z,45.00
2019-02-04T00:58:56.008Z,44.40
2019-02-04T01:01:29.111Z,47.00
2019-02-04T01:04:05.532Z,45.80
2019-02-04T01:06:37.003Z,38.53
2019-02-04T01:09:10.769Z,36.53
2019-02-04T01:11:42.311Z,46.97
2019-02-04T01:14:13.757Z,44.40
2019-02-04T01:16:45.229Z,42.67
2019-02-04T01:19:16.669Z,41.20
2019-02-04T01:21:48.429Z,42.90
2019-02-04T01:24:20.199Z,39.50
2019-02-04T01:26:51.666Z,36.77
2019-02-04T01:29:23.345Z,41.43
2019-02-04T01:31:54.797Z,43.93
2019-02-04T01:34:26.155Z,45.87
2019-02-04T01:36:57.537Z,43.77
2019-02-04T01:39:30.450Z,39.77
2019-02-04T01:42:01.921Z,39.37
2019-02-04T01:44:33.357Z,41.40
2019-02-04T01:47:14.399Z,35.73
2019-02-04T01:49:37.925Z,37.03
2019-02-04T01:52:09.407Z,44.03
2019-02-04T01:54:40.853Z,37.80
2019-02-04T01:57:12.605Z,39.93
2019-02-04T01:59:46.092Z,39.33
2019-02-04T02:02:17.219Z,42.17
2019-02-04T02:04:48.655Z,42.63
2019-02-04T02:07:20.131Z,40.83
2019-02-04T02:09:52.152Z,38.87
2019-02-04T02:12:23.616Z,34.83
2019-02-04T02:14:56.731Z,37.50
2019-02-04T02:17:28.217Z,43.80
2019-02-04T02:19:59.661Z,38.40
2019-02-04T02:22:31.147Z,39.53
2019-02-04T02:25:02.551Z,39.80
2019-02-04T02:27:34.035Z,40.83
2019-02-04T02:30:07.005Z,43.30
2019-02-04T02:32:38.482Z,41.60
2019-02-04T02:35:11.821Z,38.87
2019-02-04T02:37:43.302Z,44.07
2019-02-04T02:40:23.039Z,40.87
2019-02-04T02:42:54.522Z,39.20
2019-02-04T02:45:26.137Z,41.77
2019-02-04T02:47:57.601Z,43.77
2019-02-04T02:50:29.041Z,44.00
2019-02-04T02:53:02.295Z,39.77
2019-02-04T02:55:33.727Z,43.67
2019-02-04T02:58:05.311Z,40.70
2019-02-04T03:00:36.747Z,34.80
2019-02-04T03:03:08.825Z,38.07
2019-02-04T03:05:41.015Z,46.80
2019-02-04T03:08:12.486Z,45.87
2019-02-04T03:10:43.897Z,44.77
2019-02-04T03:13:17.345Z,43.50
2019-02-04T03:15:48.823Z,43.13
2019-02-04T03:18:20.798Z,39.73
2019-02-04T03:20:54.928Z,42.50
2019-02-04T03:23:26.393Z,41.43
2019-02-04T03:26:00.597Z,49.20
2019-02-04T03:28:32.243Z,44.90
2019-02-04T03:31:04.149Z,41.47
2019-02-04T03:33:35.600Z,49.77
2019-02-04T03:36:07.036Z,51.53
2019-02-04T03:38:38.481Z,48.53
2019-02-04T03:41:09.994Z,45.60
2019-02-04T03:43:41.430Z,46.47
2019-02-04T03:46:12.856Z,55.90
2019-02-04T03:48:44.300Z,50.60
2019-02-04T03:51:15.708Z,49.10
2019-02-04T03:53:51.630Z,54.47
2019-02-04T03:56:23.157Z,39.83
2019-02-04T03:58:54.640Z,39.00
2019-02-04T04:01:26.276Z,48.77
2019-02-04T04:03:58.240Z,49.30
2019-02-04T04:06:29.616Z,43.30
2019-02-04T04:09:01.212Z,43.33
2019-02-04T04:11:34.385Z,45.03
2019-02-04T04:14:05.951Z,41.20
2019-02-04T04:16:37.316Z,43.40
2019-02-04T04:19:10.499Z,43.53
2019-02-04T04:21:42.061Z,45.10
2019-02-04T04:24:13.502Z,37.13
2019-02-04T04:26:46.394Z,44.87
2019-02-04T04:29:17.892Z,44.73
2019-02-04T04:31:49.636Z,46.50
2019-02-04T04:34:23.874Z,49.00
2019-02-04T04:36:56.570Z,46.17
2019-02-04T04:39:28.011Z,39.13
2019-02-04T04:42:01.087Z,44.33
2019-02-04T04:44:32.776Z,43.50
2019-02-04T04:47:04.230Z,47.47
2019-02-04T04:49:38.408Z,47.83
2019-02-04T04:52:09.838Z,43.43
2019-02-04T04:54:41.570Z,51.17
2019-02-04T04:57:13.035Z,40.30
2019-02-04T04:59:46.762Z,39.80
2019-02-04T05:02:17.903Z,44.63
2019-02-04T05:04:49.339Z,44.47
2019-02-04T05:07:20.996Z,43.00
2019-02-04T05:09:52.447Z,38.27
2019-02-04T05:12:23.891Z,41.13
2019-02-04T05:14:55.352Z,50.37
2019-02-04T05:17:26.774Z,38.67
2019-02-04T05:19:58.615Z,45.90
2019-02-04T05:22:30.032Z,44.53
2019-02-04T05:25:01.496Z,43.40
2019-02-04T05:27:32.994Z,42.93
2019-02-04T05:30:07.706Z,47.63
2019-02-04T05:32:39.148Z,49.00
2019-02-04T05:35:10.828Z,49.57
2019-02-04T05:37:42.246Z,44.03
2019-02-04T05:40:15.830Z,50.03
2019-02-04T05:42:50.930Z,48.57
2019-02-04T05:45:22.532Z,46.37
2019-02-04T05:47:53.949Z,48.30
2019-02-04T05:50:25.412Z,47.87
2019-02-04T05:52:56.840Z,43.30
2019-02-04T05:55:30.489Z,39.70
2019-02-04T05:58:01.711Z,45.43
2019-02-04T06:00:42.398Z,43.53
2019-02-04T06:03:13.815Z,46.90
2019-02-04T06:05:45.560Z,42.60
2019-02-04T06:08:17.023Z,38.17
2019-02-04T06:10:48.487Z,39.90
2019-02-04T06:13:20.000Z,44.77
2019-02-04T06:15:51.458Z,42.97
2019-02-04T06:18:23.185Z,43.00
2019-02-04T06:20:54.711Z,41.50
2019-02-04T06:23:26.587Z,49.60
2019-02-04T06:25:58.013Z,42.10
2019-02-04T06:28:29.446Z,48.10
2019-02-04T06:31:00.952Z,57.97
2019-02-04T06:33:32.455Z,42.57
2019-02-04T06:36:04.003Z,44.93
2019-02-04T06:38:35.510Z,52.43
2019-02-04T06:41:07.024Z,44.60
2019-02-04T06:43:38.487Z,57.60
2019-02-04T06:46:10.984Z,44.20
2019-02-04T06:48:43.888Z,44.57
2019-02-04T06:51:15.839Z,46.57
2019-02-04T06:53:47.206Z,43.37
2019-02-04T06:56:18.707Z,46.50
2019-02-04T06:58:50.149Z,45.50
2019-02-04T07:01:24.337Z,45.90
2019-02-04T07:03:55.797Z,51.60
2019-02-04T07:06:27.831Z,41.60
2019-02-04T07:08:59.353Z,46.03
2019-02-04T07:11:30.833Z,53.33
2019-02-04T07:14:02.270Z,48.40
2019-02-04T07:16:33.855Z,48.13
2019-02-04T07:19:05.678Z,54.53
2019-02-04T07:21:37.108Z,55.70
2019-02-04T07:24:08.662Z,46.43
2019-02-04T07:26:42.007Z,47.40
2019-02-04T07:29:13.438Z,47.70
2019-02-04T07:31:45.267Z,44.63
2019-02-04T07:34:16.720Z,49.37
2019-02-04T07:36:48.668Z,48.30
2019-02-04T07:39:20.084Z,47.50
2019-02-04T07:41:51.652Z,46.23
2019-02-04T07:44:24.387Z,44.60
2019-02-04T07:46:55.827Z,54.53
2019-02-04T07:49:35.043Z,43.67
2019-02-04T07:52:01.401Z,42.17
2019-02-04T07:54:32.837Z,40.57
2019-02-04T07:57:04.577Z,35.83
2019-02-04T07:59:36.070Z,36.93
2019-02-04T08:02:07.508Z,41.77
2019-02-04T08:04:38.953Z,42.00
2019-02-04T08:07:10.484Z,40.40
2019-02-04T08:09:41.993Z,42.33
2019-02-04T08:12:13.485Z,37.67
2019-02-04T08:14:45.403Z,40.80
2019-02-04T08:17:17.035Z,43.87
2019-02-04T08:19:51.527Z,32.67
2019-02-04T08:22:22.981Z,40.13
2019-02-04T08:24:56.067Z,35.90
2019-02-04T08:27:27.565Z,38.33
2019-02-04T08:29:59.085Z,38.30
2019-02-04T08:32:30.439Z,34.90
2019-02-04T08:35:01.934Z,39.23
2019-02-04T08:37:34.987Z,33.40
2019-02-04T08:40:07.508Z,32.57
2019-02-04T08:42:40.464Z,43.13
2019-02-04T08:45:12.461Z,38.90
2019-02-04T08:47:44.208Z,36.20
2019-02-04T08:50:18.283Z,38.13
2019-02-04T08:52:52.571Z,29.63
2019-02-04T08:55:24.019Z,38.73
2019-02-04T08:57:56.725Z,41.50
2019-02-04T09:00:30.035Z,31.10
2019-02-04T09:03:01.582Z,41.67
2019-02-04T09:05:33.947Z,28.23
2019-02-04T09:08:05.555Z,36.23
2019-02-04T09:10:37.475Z,28.13
2019-02-04T09:13:08.906Z,31.03
2019-02-04T09:15:40.446Z,33.80
2019-02-04T09:18:16.276Z,29.43
2019-02-04T09:20:49.845Z,32.50
2019-02-04T09:23:24.133Z,31.67
2019-02-04T09:25:55.592Z,26.10
2019-02-04T09:28:29.833Z,24.20
2019-02-04T09:31:00.453Z,31.90
2019-02-04T09:33:32.008Z,22.70
2019-02-04T09:36:03.448Z,27.90
2019-02-04T09:38:37.668Z,27.80
2019-02-04T09:41:09.135Z,36.80
2019-02-04T09:43:40.631Z,36.63
2019-02-04T09:46:12.140Z,37.53
2019-02-04T09:48:45.206Z,28.67
2019-02-04T09:51:16.635Z,30.13
2019-02-04T09:53:49.323Z,26.90
2019-02-04T09:56:20.735Z,26.43
2019-02-04T09:58:52.207Z,21.33
2019-02-04T10:01:23.867Z,25.63
2019-02-04T10:03:58.107Z,26.93
2019-02-04T10:06:31.545Z,29.93
2019-02-04T10:09:02.678Z,26.37
2019-02-04T10:11:35.741Z,26.40
2019-02-04T10:14:07.281Z,29.73
2019-02-04T10:16:38.755Z,31.10
2019-02-04T10:19:10.239Z,29.10
2019-02-04T10:21:41.732Z,35.70
2019-02-04T10:24:13.413Z,22.87
2019-02-04T10:26:44.928Z,28.93
2019-02-04T10:29:16.438Z,26.40
2019-02-04T10:31:48.050Z,26.67
2019-02-04T10:34:19.558Z,30.03
2019-02-04T10:36:53.381Z,24.30
2019-02-04T10:39:24.891Z,36.70
2019-02-04T10:41:56.266Z,24.10
2019-02-04T10:44:27.681Z,18.90
2019-02-04T10:47:01.241Z,27.73
2019-02-04T10:49:32.819Z,21.60
2019-02-04T10:52:04.283Z,20.23
2019-02-04T10:54:35.866Z,20.97
2019-02-04T10:57:09.470Z,17.40
2019-02-04T10:59:41.262Z,24.77
2019-02-04T11:02:12.723Z,26.17
2019-02-04T11:04:44.194Z,20.70
2019-02-04T11:07:17.280Z,19.03
2019-02-04T11:09:48.819Z,22.47
2019-02-04T11:12:20.795Z,26.17
2019-02-04T11:14:52.425Z,18.10
2019-02-04T11:17:23.887Z,27.70
2019-02-04T11:19:55.366Z,19.27
2019-02-04T11:22:26.804Z,21.53
2019-02-04T11:24:58.517Z,21.53
2019-02-04T11:27:29.987Z,24.93
2019-02-04T11:30:01.664Z,22.43
2019-02-04T11:32:35.781Z,22.87
2019-02-04T11:35:07.620Z,20.17
2019-02-04T11:37:39.066Z,22.83
2019-02-04T11:40:11.918Z,21.20
2019-02-04T11:42:43.569Z,20.27
2019-02-04T11:45:15.508Z,19.10
2019-02-04T11:47:47.742Z,17.27
2019-02-04T11:50:19.302Z,15.87
2019-02-04T11:52:50.715Z,18.80
2019-02-04T11:55:22.360Z,14.93
2019-02-04T11:57:53.848Z,16.93
2019-02-04T12:00:29.586Z,14.77
2019-02-04T12:03:01.854Z,18.47
2019-02-04T12:05:36.399Z,15.80
2019-02-04T12:08:08.264Z,14.50
2019-02-04T12:10:47.684Z,17.03
2019-02-04T12:13:19.722Z,16.17
2019-02-04T12:15:54.250Z,18.33
2019-02-04T12:18:25.666Z,15.37
2019-02-04T12:20:57.309Z,15.07
2019-02-04T12:23:30.325Z,19.27
2019-02-04T12:26:01.785Z,17.70
2019-02-04T12:28:33.291Z,15.37
2019-02-04T12:31:09.200Z,16.20
2019-02-04T12:33:40.431Z,20.17
2019-02-04T12:36:12.192Z,19.77
2019-02-04T12:38:43.614Z,20.37
2019-02-04T12:41:15.217Z,16.63
2019-02-04T12:43:46.653Z,17.87
2019-02-04T12:46:18.224Z,20.10
2019-02-04T12:48:49.700Z,21.40
2019-02-04T12:51:33.418Z,18.83
2019-02-04T12:53:56.678Z,19.80
2019-02-04T12:56:28.240Z,21.57
2019-02-04T12:59:00.012Z,26.17
2019-02-04T13:01:31.519Z,22.37
2019-02-04T13:04:03.178Z,21.70
2019-02-04T13:06:34.847Z,19.43
2019-02-04T13:09:10.251Z,24.20
2019-02-04T13:11:41.750Z,19.37
2019-02-04T13:14:13.158Z,21.97
2019-02-04T13:16:44.627Z,25.40
2019-02-04T13:19:16.048Z,22.30
2019-02-04T13:21:47.504Z,23.33
2019-02-04T13:24:19.050Z,20.20
2019-02-04T13:26:50.514Z,20.90
2019-02-04T13:29:23.770Z,23.17
2019-02-04T13:31:55.232Z,24.40
2019-02-04T13:34:26.694Z,34.20
2019-02-04T13:36:58.153Z,27.73
2019-02-04T13:39:29.607Z,36.83
2019-02-04T13:42:01.099Z,33.33
2019-02-04T13:44:32.566Z,29.67
2019-02-04T13:47:07.265Z,33.37
2019-02-04T13:49:38.758Z,28.23
2019-02-04T13:52:15.250Z,31.17
2019-02-04T13:54:46.280Z,34.83
2019-02-04T13:57:18.127Z,28.27
2019-02-04T13:59:49.544Z,29.77
2019-02-04T14:02:21.015Z,25.17
2019-02-04T14:04:53.508Z,24.93
2019-02-04T14:07:25.002Z,25.43
2019-02-04T14:09:59.094Z,24.70
2019-02-04T14:12:29.754Z,25.57
2019-02-04T14:15:01.351Z,24.00
2019-02-04T14:17:33.916Z,23.77
2019-02-04T14:20:11.934Z,29.03
2019-02-04T14:22:43.581Z,32.43
2019-02-04T14:25:15.325Z,26.50
2019-02-04T14:27:46.981Z,26.07
2019-02-04T14:30:25.761Z,22.40
2019-02-04T14:32:57.322Z,22.20
2019-02-04T14:35:30.239Z,19.53
2019-02-04T14:38:01.996Z,20.60
2019-02-04T14:40:33.357Z,22.03
2019-02-04T14:43:35.147Z,23.10
2019-02-04T14:47:03.074Z,29.83
2019-02-04T14:50:23.768Z,25.23
2019-02-04T14:53:55.634Z,29.60
2019-02-04T14:57:27.880Z,23.47
2019-02-04T15:00:45.539Z,28.70
2019-02-04T15:04:17.931Z,31.17
2019-02-04T15:07:49.367Z,32.60
2019-02-04T15:11:09.419Z,29.23
2019-02-04T15:14:46.772Z,36.00
2019-02-04T15:18:02.107Z,29.60
2019-02-04T15:21:43.272Z,31.20
2019-02-04T15:25:20.800Z,29.00
2019-02-04T15:28:44.210Z,28.20
2019-02-04T15:32:29.570Z,21.63
2019-02-04T15:35:52.863Z,29.80
2019-02-04T15:39:05.636Z,25.53
2019-02-04T15:42:31.894Z,23.80
2019-02-04T15:45:57.895Z,27.23
2019-02-04T15:49:07.737Z,26.03
2019-02-04T15:51:56.382Z,26.43
2019-02-04T15:54:28.372Z,33.80
2019-02-04T15:56:59.759Z,22.63
2019-02-04T15:59:31.234Z,25.67
2019-02-04T16:02:05.213Z,26.77
2019-02-04T16:04:37.489Z,29.47
2019-02-04T16:07:13.274Z,29.23
2019-02-04T16:09:44.718Z,25.30
2019-02-04T16:12:18.351Z,31.13
2019-02-04T16:14:49.767Z,31.93
2019-02-04T16:17:21.333Z,29.53
2019-02-04T16:19:54.844Z,32.80
2019-02-04T16:22:26.316Z,36.57
2019-02-04T16:24:58.034Z,29.40
2019-02-04T16:27:29.474Z,30.73
2019-02-04T16:30:00.951Z,31.03
2019-02-04T16:32:34.036Z,37.53
2019-02-04T16:35:06.973Z,32.20
2019-02-04T16:37:38.481Z,35.87
2019-02-04T16:40:12.417Z,38.57
2019-02-04T16:42:43.982Z,35.07
2019-02-04T16:45:16.588Z,37.57
2019-02-04T16:47:49.699Z,33.03
2019-02-04T16:50:24.789Z,39.10
2019-02-04T16:52:56.287Z,35.00
2019-02-04T16:55:27.807Z,36.60
2019-02-04T16:57:59.322Z,36.20
2019-02-04T17:00:32.384Z,36.67
2019-02-04T17:03:03.888Z,34.27
2019-02-04T17:05:35.949Z,38.37
2019-02-04T17:08:09.984Z,45.63
2019-02-04T17:10:41.572Z,36.20
2019-02-04T17:13:15.256Z,42.47
2019-02-04T17:15:46.787Z,43.00
2019-02-04T17:18:20.395Z,37.47
2019-02-04T17:20:51.980Z,39.40
2019-02-04T17:23:23.560Z,39.47
2019-02-04T17:25:55.064Z,41.53
2019-02-04T17:28:27.942Z,36.27
2019-02-04T17:30:59.386Z,37.63
2019-02-04T17:33:30.994Z,35.73
2019-02-04T17:36:02.503Z,35.77
2019-02-04T17:38:37.387Z,38.57
2019-02-04T17:41:08.008Z,40.27
2019-02-04T17:43:39.562Z,38.80
2019-02-04T17:46:14.025Z,35.90
2019-02-04T17:48:49.170Z,36.90
2019-02-04T17:51:20.784Z,40.03
2019-02-04T17:53:52.244Z,39.47
2019-02-04T17:56:28.283Z,35.37
2019-02-04T17:59:02.049Z,41.00
2019-02-04T18:01:33.688Z,39.53
2019-02-04T18:04:05.439Z,34.47
2019-02-04T18:06:36.907Z,44.70
2019-02-04T18:09:10.898Z,41.30
2019-02-04T18:11:42.632Z,41.13
2019-02-04T18:14:15.178Z,39.83
2019-02-04T18:16:46.632Z,38.83
2019-02-04T18:19:18.108Z,44.07
2019-02-04T18:21:49.540Z,41.53
2019-02-04T18:24:21.603Z,44.87
2019-02-04T18:26:53.042Z,43.77
2019-02-04T18:29:24.493Z,46.70
2019-02-04T18:31:57.013Z,49.23
2019-02-04T18:34:28.550Z,42.27
2019-02-04T18:37:00.055Z,48.70
2019-02-04T18:39:31.495Z,49.53
2019-02-04T18:42:03.047Z,40.97
2019-02-04T18:44:34.821Z,44.47
2019-02-04T18:47:06.316Z,51.53
2019-02-04T18:49:37.836Z,42.90
2019-02-04T18:52:09.340Z,45.90
2019-02-04T18:54:41.207Z,42.23
2019-02-04T18:57:13.844Z,47.90
2019-02-04T18:59:45.349Z,49.00
2019-02-04T19:02:16.821Z,45.60
2019-02-04T19:04:48.393Z,49.03
2019-02-04T19:07:19.848Z,55.87
2019-02-04T19:09:51.345Z,51.17
2019-02-04T19:12:22.770Z,54.23
2019-02-04T19:14:54.767Z,47.40
2019-02-04T19:17:26.313Z,43.33
2019-02-04T19:20:03.730Z,58.20
2019-02-04T19:22:35.633Z,54.40
2019-02-04T19:25:09.844Z,55.53
2019-02-04T19:27:44.768Z,51.33
2019-02-04T19:30:29.533Z,46.60
2019-02-04T19:33:01.291Z,50.30
2019-02-04T19:35:35.577Z,65.20
2019-02-04T19:38:07.154Z,68.63
2019-02-04T19:40:38.634Z,61.63
2019-02-04T19:43:10.084Z,54.00
2019-02-04T19:45:41.602Z,52.00
2019-02-04T19:48:14.811Z,43.53
2019-02-04T19:50:46.404Z,40.03
2019-02-04T19:53:18.181Z,41.60
2019-02-04T19:55:52.657Z,44.07
2019-02-04T19:58:24.137Z,43.20
2019-02-04T20:00:58.440Z,45.90
2019-02-04T20:03:29.933Z,38.10
2019-02-04T20:06:01.541Z,44.63
2019-02-04T20:08:33.866Z,39.60
2019-02-04T20:11:07.758Z,47.70
2019-02-04T20:13:40.569Z,53.30
2019-02-04T20:16:14.884Z,53.30
2019-02-04T20:18:46.335Z,42.60
2019-02-04T20:21:17.843Z,43.47
2019-02-04T20:23:49.580Z,41.70
2019-02-04T20:26:26.613Z,42.83
2019-02-04T20:28:54.709Z,38.77
2019-02-04T20:31:26.172Z,39.07
2019-02-04T20:33:57.809Z,41.07
2019-02-04T20:36:29.454Z,40.90
2019-02-04T20:39:04.988Z,39.23
2019-02-04T20:41:37.652Z,38.77
2019-02-04T20:44:09.115Z,38.43
2019-02-04T20:46:40.673Z,42.10
2019-02-04T20:49:13.784Z,38.10
2019-02-04T20:51:45.253Z,38.80
2019-02-04T20:54:19.830Z,40.97
2019-02-04T20:56:50.128Z,39.43
2019-02-04T20:59:22.130Z,41.80
2019-02-04T21:01:53.670Z,42.00
2019-02-04T21:04:25.120Z,43.93
2019-02-04T21:06:57.674Z,40.13
2019-02-04T21:09:29.758Z,46.17
2019-02-04T21:12:01.300Z,39.90
2019-02-04T21:14:33.829Z,43.17
2019-02-04T21:17:05.302Z,44.73
2019-02-04T21:19:36.769Z,44.17
2019-02-04T21:22:08.524Z,38.30
2019-02-04T21:24:41.019Z,37.90
2019-02-04T21:27:12.466Z,40.23
2019-02-04T21:29:44.252Z,45.23
2019-02-04T21:32:17.309Z,47.73
2019-02-04T21:34:49.321Z,44.63
2019-02-04T21:37:20.796Z,46.27
2019-02-04T21:39:52.294Z,45.93
2019-02-04T21:42:23.807Z,40.50
2019-02-04T21:44:55.286Z,43.33
2019-02-04T21:47:27.061Z,45.70
2019-02-04T21:50:00.087Z,51.10
2019-02-04T21:52:31.907Z,46.53
2019-02-04T21:55:11.056Z,43.67
2019-02-04T21:57:38.418Z,46.07
2019-02-04T22:00:14.963Z,42.30
2019-02-04T22:02:47.295Z,43.80
2019-02-04T22:05:20.052Z,43.13
2019-02-04T22:07:51.557Z,43.47
2019-02-04T22:10:25.034Z,38.50
2019-02-04T22:12:56.485Z,43.90
2019-02-04T22:15:28.026Z,40.67
2019-02-04T22:17:59.574Z,40.53
2019-02-04T22:20:31.070Z,34.70
2019-02-04T22:23:02.516Z,41.30
2019-02-04T22:25:34.074Z,42.70
2019-02-04T22:28:05.716Z,36.13
2019-02-04T22:30:37.151Z,35.50
2019-02-04T22:33:08.659Z,44.90
2019-02-04T22:35:40.141Z,34.87
2019-02-04T22:38:11.822Z,37.37
2019-02-04T22:40:43.219Z,36.60
2019-02-04T22:43:14.721Z,38.23
2019-02-04T22:45:46.275Z,37.97
2019-02-04T22:48:17.723Z,36.73
2019-02-04T22:50:49.142Z,39.20
2019-02-04T22:53:20.583Z,42.70
2019-02-04T22:55:52.038Z,38.60
2019-02-04T22:58:23.489Z,38.33
2019-02-04T23:01:36.053Z,38.30
2019-02-04T23:04:10.314Z,30.53
2019-02-04T23:06:43.874Z,38.83
2019-02-04T23:09:15.307Z,37.80
2019-02-04T23:11:47.279Z,33.23
2019-02-04T23:14:18.673Z,31.50
2019-02-04T23:16:50.180Z,38.37
2019-02-04T23:19:21.906Z,33.63
2019-02-04T23:21:53.337Z,37.23
2019-02-04T23:24:24.769Z,35.03
2019-02-04T23:26:56.268Z,36.57
2019-02-04T23:29:27.729Z,30.47
2019-02-04T23:31:59.752Z,35.97
2019-02-04T23:34:31.201Z,33.03
2019-02-04T23:37:05.545Z,31.83
2019-02-04T23:39:38.765Z,30.30
2019-02-04T23:42:10.509Z,33.63
2019-02-04T23:44:41.933Z,35.33
2019-02-04T23:47:15.021Z,29.57
2019-02-04T23:49:46.487Z,35.20
2019-02-04T23:52:17.934Z,29.43
2019-02-04T23:54:51.031Z,27.73
2019-02-04T23:57:23.689Z,30.07
2019-02-04T23:59:55.059Z,36.03
